sensor_id;sensor_type;location;lat;lon;timestamp;P1;durP1;ratioP1;P2;durP2;ratioP2
71648;SDS011;59492;45.638;11.714;2023-03-01T00:00:12;9.90;;;5.80;;
71648;SDS011;59492;45.638;11.714;2023-03-01T00:02:38;7.40;;;5.70;;
71648;SDS011;59492;45.638;11.714;2023-03-01T00:05:04;9.00;;;5.70;;
71648;SDS011;59492;45.638;11.714;2023-03-01T00:07:29;7.00;;;5.50;;
71648;SDS011;59492;45.638;11.714;2023-03-01T00:09:55;7.60;;;5.60;;
71648;SDS011;59492;45.638;11.714;2023-03-01T00:12:21;9.00;;;5.90;;
71648;SDS011;59492;45.638;11.714;2023-03-01T00:14:46;5.80;;;5.10;;
71648;SDS011;59492;45.638;11.714;2023-03-01T00:17:12;7.90;;;5.90;;
71648;SDS011;59492;45.638;11.714;2023-03-01T00:19:37;8.30;;;5.50;;
71648;SDS011;59492;45.638;11.714;2023-03-01T00:22:03;8.70;;;5.40;;
71648;SDS011;59492;45.638;11.714;2023-03-01T00:24:28;8.30;;;5.50;;
71648;SDS011;59492;45.638;11.714;2023-03-01T00:26:54;6.90;;;5.10;;
71648;SDS011;59492;45.638;11.714;2023-03-01T00:29:21;7.00;;;5.10;;
71648;SDS011;59492;45.638;11.714;2023-03-01T00:31:48;6.60;;;5.00;;
71648;SDS011;59492;45.638;11.714;2023-03-01T00:34:14;6.50;;;5.00;;
71648;SDS011;59492;45.638;11.714;2023-03-01T00:36:39;7.00;;;5.40;;
71648;SDS011;59492;45.638;11.714;2023-03-01T00:39:05;7.50;;;5.70;;
71648;SDS011;59492;45.638;11.714;2023-03-01T00:41:37;8.30;;;5.30;;
71648;SDS011;59492;45.638;11.714;2023-03-01T00:44:02;7.00;;;4.90;;
71648;SDS011;59492;45.638;11.714;2023-03-01T00:46:28;7.50;;;5.40;;
71648;SDS011;59492;45.638;11.714;2023-03-01T00:48:55;6.70;;;5.20;;
71648;SDS011;59492;45.638;11.714;2023-03-01T00:51:24;6.20;;;4.70;;
71648;SDS011;59492;45.638;11.714;2023-03-01T00:53:53;7.40;;;5.20;;
71648;SDS011;59492;45.638;11.714;2023-03-01T00:56:20;7.00;;;5.30;;
71648;SDS011;59492;45.638;11.714;2023-03-01T00:58:46;7.10;;;5.10;;
71648;SDS011;59492;45.638;11.714;2023-03-01T01:01:13;8.00;;;5.00;;
71648;SDS011;59492;45.638;11.714;2023-03-01T01:03:44;7.80;;;5.20;;
71648;SDS011;59492;45.638;11.714;2023-03-01T01:06:25;6.80;;;5.40;;
71648;SDS011;59492;45.638;11.714;2023-03-01T01:08:55;7.80;;;4.70;;
71648;SDS011;59492;45.638;11.714;2023-03-01T01:11:21;9.90;;;5.00;;
71648;SDS011;59492;45.638;11.714;2023-03-01T01:13:49;6.00;;;4.60;;
71648;SDS011;59492;45.638;11.714;2023-03-01T01:16:16;6.70;;;5.10;;
71648;SDS011;59492;45.638;11.714;2023-03-01T01:18:46;6.40;;;4.60;;
71648;SDS011;59492;45.638;11.714;2023-03-01T01:21:13;5.70;;;4.80;;
71648;SDS011;59492;45.638;11.714;2023-03-01T01:23:41;6.40;;;5.00;;
71648;SDS011;59492;45.638;11.714;2023-03-01T01:26:08;5.70;;;4.70;;
71648;SDS011;59492;45.638;11.714;2023-03-01T01:28:36;6.10;;;4.90;;
71648;SDS011;59492;45.638;11.714;2023-03-01T01:31:02;5.60;;;4.40;;
71648;SDS011;59492;45.638;11.714;2023-03-01T01:33:28;6.30;;;4.70;;
71648;SDS011;59492;45.638;11.714;2023-03-01T01:35:54;5.80;;;4.50;;
71648;SDS011;59492;45.638;11.714;2023-03-01T01:38:20;7.50;;;4.80;;
71648;SDS011;59492;45.638;11.714;2023-03-01T01:40:46;7.40;;;4.70;;
71648;SDS011;59492;45.638;11.714;2023-03-01T01:43:18;7.30;;;5.10;;
71648;SDS011;59492;45.638;11.714;2023-03-01T01:45:44;7.00;;;4.80;;
71648;SDS011;59492;45.638;11.714;2023-03-01T01:48:14;5.80;;;4.40;;
71648;SDS011;59492;45.638;11.714;2023-03-01T01:50:44;7.00;;;5.00;;
71648;SDS011;59492;45.638;11.714;2023-03-01T01:53:14;5.80;;;4.20;;
71648;SDS011;59492;45.638;11.714;2023-03-01T01:55:44;6.20;;;5.00;;
71648;SDS011;59492;45.638;11.714;2023-03-01T01:58:14;6.10;;;4.40;;
71648;SDS011;59492;45.638;11.714;2023-03-01T02:00:42;6.70;;;5.00;;
71648;SDS011;59492;45.638;11.714;2023-03-01T02:03:10;6.90;;;4.70;;
71648;SDS011;59492;45.638;11.714;2023-03-01T02:08:25;6.90;;;5.00;;
71648;SDS011;59492;45.638;11.714;2023-03-01T02:10:55;5.60;;;4.70;;
71648;SDS011;59492;45.638;11.714;2023-03-01T02:13:22;5.10;;;4.50;;
71648;SDS011;59492;45.638;11.714;2023-03-01T02:15:48;6.70;;;4.30;;
71648;SDS011;59492;45.638;11.714;2023-03-01T02:18:15;6.20;;;4.80;;
71648;SDS011;59492;45.638;11.714;2023-03-01T02:23:54;7.60;;;5.00;;
71648;SDS011;59492;45.638;11.714;2023-03-01T02:29:02;6.00;;;4.50;;
71648;SDS011;59492;45.638;11.714;2023-03-01T02:31:28;7.70;;;4.60;;
71648;SDS011;59492;45.638;11.714;2023-03-01T02:34:12;6.90;;;5.00;;
71648;SDS011;59492;45.638;11.714;2023-03-01T02:36:43;5.90;;;4.60;;
71648;SDS011;59492;45.638;11.714;2023-03-01T02:39:16;5.70;;;5.10;;
71648;SDS011;59492;45.638;11.714;2023-03-01T02:41:48;6.50;;;4.60;;
71648;SDS011;59492;45.638;11.714;2023-03-01T02:44:17;4.90;;;4.40;;
71648;SDS011;59492;45.638;11.714;2023-03-01T02:46:44;5.80;;;4.60;;
71648;SDS011;59492;45.638;11.714;2023-03-01T02:49:18;5.60;;;4.90;;
71648;SDS011;59492;45.638;11.714;2023-03-01T02:57:21;5.10;;;4.00;;
71648;SDS011;59492;45.638;11.714;2023-03-01T02:59:48;6.10;;;4.20;;
71648;SDS011;59492;45.638;11.714;2023-03-01T03:02:26;5.60;;;4.50;;
71648;SDS011;59492;45.638;11.714;2023-03-01T03:05:04;6.50;;;4.90;;
71648;SDS011;59492;45.638;11.714;2023-03-01T03:07:34;7.30;;;5.00;;
71648;SDS011;59492;45.638;11.714;2023-03-01T03:10:02;5.70;;;4.70;;
71648;SDS011;59492;45.638;11.714;2023-03-01T03:12:29;5.80;;;4.50;;
71648;SDS011;59492;45.638;11.714;2023-03-01T03:14:54;7.10;;;4.80;;
71648;SDS011;59492;45.638;11.714;2023-03-01T03:17:20;5.10;;;4.20;;
71648;SDS011;59492;45.638;11.714;2023-03-01T03:19:45;5.50;;;4.70;;
71648;SDS011;59492;45.638;11.714;2023-03-01T03:22:11;5.40;;;4.40;;
71648;SDS011;59492;45.638;11.714;2023-03-01T03:24:37;4.90;;;4.20;;
71648;SDS011;59492;45.638;11.714;2023-03-01T03:27:04;5.00;;;4.30;;
71648;SDS011;59492;45.638;11.714;2023-03-01T03:29:30;5.90;;;4.50;;
71648;SDS011;59492;45.638;11.714;2023-03-01T03:31:56;7.60;;;4.50;;
71648;SDS011;59492;45.638;11.714;2023-03-01T03:34:22;6.70;;;4.60;;
71648;SDS011;59492;45.638;11.714;2023-03-01T03:36:49;5.00;;;4.30;;
71648;SDS011;59492;45.638;11.714;2023-03-01T03:39:22;5.50;;;4.50;;
71648;SDS011;59492;45.638;11.714;2023-03-01T03:41:49;6.00;;;4.20;;
71648;SDS011;59492;45.638;11.714;2023-03-01T03:44:14;6.70;;;4.40;;
71648;SDS011;59492;45.638;11.714;2023-03-01T03:46:40;5.40;;;4.80;;
71648;SDS011;59492;45.638;11.714;2023-03-01T03:49:05;5.20;;;4.20;;
71648;SDS011;59492;45.638;11.714;2023-03-01T03:51:31;6.00;;;4.50;;
71648;SDS011;59492;45.638;11.714;2023-03-01T03:53:56;5.70;;;4.40;;
71648;SDS011;59492;45.638;11.714;2023-03-01T03:56:22;6.40;;;4.50;;
71648;SDS011;59492;45.638;11.714;2023-03-01T03:58:51;5.20;;;4.30;;
71648;SDS011;59492;45.638;11.714;2023-03-01T04:01:17;5.70;;;4.10;;
71648;SDS011;59492;45.638;11.714;2023-03-01T04:03:43;6.20;;;4.90;;
71648;SDS011;59492;45.638;11.714;2023-03-01T04:06:12;5.90;;;4.50;;
71648;SDS011;59492;45.638;11.714;2023-03-01T04:08:38;4.80;;;4.20;;
71648;SDS011;59492;45.638;11.714;2023-03-01T04:11:04;6.10;;;4.80;;
71648;SDS011;59492;45.638;11.714;2023-03-01T04:13:49;5.20;;;4.40;;
71648;SDS011;59492;45.638;11.714;2023-03-01T04:16:16;5.90;;;4.40;;
71648;SDS011;59492;45.638;11.714;2023-03-01T04:18:42;5.50;;;4.50;;
71648;SDS011;59492;45.638;11.714;2023-03-01T04:21:09;5.90;;;4.30;;
71648;SDS011;59492;45.638;11.714;2023-03-01T04:23:35;4.80;;;4.10;;
71648;SDS011;59492;45.638;11.714;2023-03-01T04:26:01;6.70;;;5.10;;
71648;SDS011;59492;45.638;11.714;2023-03-01T04:28:30;5.20;;;4.00;;
71648;SDS011;59492;45.638;11.714;2023-03-01T04:31:08;5.00;;;4.10;;
71648;SDS011;59492;45.638;11.714;2023-03-01T04:33:41;6.50;;;4.80;;
71648;SDS011;59492;45.638;11.714;2023-03-01T04:36:08;5.20;;;4.60;;
71648;SDS011;59492;45.638;11.714;2023-03-01T04:38:36;5.00;;;4.40;;
71648;SDS011;59492;45.638;11.714;2023-03-01T04:41:06;6.10;;;4.20;;
71648;SDS011;59492;45.638;11.714;2023-03-01T04:43:34;5.60;;;4.10;;
71648;SDS011;59492;45.638;11.714;2023-03-01T04:46:03;5.20;;;4.70;;
71648;SDS011;59492;45.638;11.714;2023-03-01T04:48:31;6.40;;;5.10;;
71648;SDS011;59492;45.638;11.714;2023-03-01T04:50:58;5.00;;;4.40;;
71648;SDS011;59492;45.638;11.714;2023-03-01T04:53:25;5.20;;;4.50;;
71648;SDS011;59492;45.638;11.714;2023-03-01T04:55:51;7.20;;;4.50;;
71648;SDS011;59492;45.638;11.714;2023-03-01T04:58:17;4.80;;;4.30;;
71648;SDS011;59492;45.638;11.714;2023-03-01T05:00:42;4.70;;;4.00;;
71648;SDS011;59492;45.638;11.714;2023-03-01T05:03:08;5.40;;;4.60;;
71648;SDS011;59492;45.638;11.714;2023-03-01T05:05:37;7.40;;;4.40;;
71648;SDS011;59492;45.638;11.714;2023-03-01T05:08:06;6.60;;;5.10;;
71648;SDS011;59492;45.638;11.714;2023-03-01T05:10:34;5.40;;;4.30;;
71648;SDS011;59492;45.638;11.714;2023-03-01T05:13:01;5.40;;;4.30;;
71648;SDS011;59492;45.638;11.714;2023-03-01T05:15:28;5.30;;;4.20;;
71648;SDS011;59492;45.638;11.714;2023-03-01T05:17:56;5.10;;;4.50;;
71648;SDS011;59492;45.638;11.714;2023-03-01T05:20:24;7.70;;;4.60;;
71648;SDS011;59492;45.638;11.714;2023-03-01T05:22:51;4.90;;;4.20;;
71648;SDS011;59492;45.638;11.714;2023-03-01T05:25:20;5.10;;;4.30;;
71648;SDS011;59492;45.638;11.714;2023-03-01T05:27:46;5.80;;;4.40;;
71648;SDS011;59492;45.638;11.714;2023-03-01T05:30:12;4.80;;;4.10;;
71648;SDS011;59492;45.638;11.714;2023-03-01T05:32:42;6.30;;;4.90;;
71648;SDS011;59492;45.638;11.714;2023-03-01T05:35:10;4.80;;;4.20;;
71648;SDS011;59492;45.638;11.714;2023-03-01T05:37:44;5.30;;;4.20;;
71648;SDS011;59492;45.638;11.714;2023-03-01T05:40:14;4.90;;;3.90;;
71648;SDS011;59492;45.638;11.714;2023-03-01T05:42:47;6.00;;;4.50;;
71648;SDS011;59492;45.638;11.714;2023-03-01T05:45:14;5.30;;;4.40;;
71648;SDS011;59492;45.638;11.714;2023-03-01T05:47:41;5.60;;;4.30;;
71648;SDS011;59492;45.638;11.714;2023-03-01T05:50:13;6.00;;;4.20;;
71648;SDS011;59492;45.638;11.714;2023-03-01T05:52:47;4.70;;;4.10;;
71648;SDS011;59492;45.638;11.714;2023-03-01T05:55:18;5.60;;;4.60;;
71648;SDS011;59492;45.638;11.714;2023-03-01T05:57:45;5.20;;;4.50;;
71648;SDS011;59492;45.638;11.714;2023-03-01T06:00:12;5.40;;;4.20;;
71648;SDS011;59492;45.638;11.714;2023-03-01T06:02:39;5.70;;;4.40;;
71648;SDS011;59492;45.638;11.714;2023-03-01T06:05:06;5.00;;;4.50;;
71648;SDS011;59492;45.638;11.714;2023-03-01T06:07:34;4.80;;;4.20;;
71648;SDS011;59492;45.638;11.714;2023-03-01T06:10:00;5.20;;;4.30;;
71648;SDS011;59492;45.638;11.714;2023-03-01T06:12:26;6.80;;;4.30;;
71648;SDS011;59492;45.638;11.714;2023-03-01T06:14:51;5.00;;;4.30;;
71648;SDS011;59492;45.638;11.714;2023-03-01T06:17:17;5.30;;;4.60;;
71648;SDS011;59492;45.638;11.714;2023-03-01T06:19:42;7.60;;;4.60;;
71648;SDS011;59492;45.638;11.714;2023-03-01T06:22:08;4.70;;;4.20;;
71648;SDS011;59492;45.638;11.714;2023-03-01T06:24:33;4.90;;;4.30;;
71648;SDS011;59492;45.638;11.714;2023-03-01T06:26:59;5.40;;;4.30;;
71648;SDS011;59492;45.638;11.714;2023-03-01T06:29:25;5.60;;;4.30;;
71648;SDS011;59492;45.638;11.714;2023-03-01T06:31:50;5.60;;;4.10;;
71648;SDS011;59492;45.638;11.714;2023-03-01T06:34:16;4.60;;;3.80;;
71648;SDS011;59492;45.638;11.714;2023-03-01T06:36:42;6.10;;;4.20;;
71648;SDS011;59492;45.638;11.714;2023-03-01T06:39:07;5.50;;;4.20;;
71648;SDS011;59492;45.638;11.714;2023-03-01T06:41:33;5.40;;;4.30;;
71648;SDS011;59492;45.638;11.714;2023-03-01T06:43:59;6.40;;;4.10;;
71648;SDS011;59492;45.638;11.714;2023-03-01T06:46:25;4.80;;;4.00;;
71648;SDS011;59492;45.638;11.714;2023-03-01T06:48:51;6.60;;;4.40;;
71648;SDS011;59492;45.638;11.714;2023-03-01T06:51:16;7.20;;;4.40;;
71648;SDS011;59492;45.638;11.714;2023-03-01T06:53:42;8.40;;;4.50;;
71648;SDS011;59492;45.638;11.714;2023-03-01T06:56:07;5.60;;;4.40;;
71648;SDS011;59492;45.638;11.714;2023-03-01T06:58:33;5.40;;;4.50;;
71648;SDS011;59492;45.638;11.714;2023-03-01T07:00:58;6.60;;;4.60;;
71648;SDS011;59492;45.638;11.714;2023-03-01T07:03:24;7.90;;;4.60;;
71648;SDS011;59492;45.638;11.714;2023-03-01T07:05:49;8.50;;;4.20;;
71648;SDS011;59492;45.638;11.714;2023-03-01T07:08:17;5.20;;;4.20;;
71648;SDS011;59492;45.638;11.714;2023-03-01T07:10:43;5.90;;;4.80;;
71648;SDS011;59492;45.638;11.714;2023-03-01T07:13:10;6.50;;;4.70;;
71648;SDS011;59492;45.638;11.714;2023-03-01T07:15:35;9.10;;;4.20;;
71648;SDS011;59492;45.638;11.714;2023-03-01T07:18:02;8.20;;;4.40;;
71648;SDS011;59492;45.638;11.714;2023-03-01T07:20:27;7.20;;;5.10;;
71648;SDS011;59492;45.638;11.714;2023-03-01T07:22:54;6.10;;;4.50;;
71648;SDS011;59492;45.638;11.714;2023-03-01T07:25:24;6.30;;;4.10;;
71648;SDS011;59492;45.638;11.714;2023-03-01T07:27:50;5.90;;;4.40;;
71648;SDS011;59492;45.638;11.714;2023-03-01T07:30:17;5.90;;;4.20;;
71648;SDS011;59492;45.638;11.714;2023-03-01T07:32:48;6.30;;;4.10;;
71648;SDS011;59492;45.638;11.714;2023-03-01T07:35:14;5.50;;;3.90;;
71648;SDS011;59492;45.638;11.714;2023-03-01T07:37:40;5.60;;;4.00;;
71648;SDS011;59492;45.638;11.714;2023-03-01T07:40:06;5.80;;;4.00;;
71648;SDS011;59492;45.638;11.714;2023-03-01T07:42:33;6.20;;;4.30;;
71648;SDS011;59492;45.638;11.714;2023-03-01T07:44:58;5.90;;;4.40;;
71648;SDS011;59492;45.638;11.714;2023-03-01T07:47:24;4.70;;;4.10;;
71648;SDS011;59492;45.638;11.714;2023-03-01T07:49:49;7.10;;;4.10;;
71648;SDS011;59492;45.638;11.714;2023-03-01T07:52:15;8.40;;;4.60;;
71648;SDS011;59492;45.638;11.714;2023-03-01T07:54:44;7.40;;;4.30;;
71648;SDS011;59492;45.638;11.714;2023-03-01T07:57:15;7.30;;;4.30;;
71648;SDS011;59492;45.638;11.714;2023-03-01T07:59:41;6.50;;;4.10;;
71648;SDS011;59492;45.638;11.714;2023-03-01T08:02:07;9.40;;;4.80;;
71648;SDS011;59492;45.638;11.714;2023-03-01T08:04:36;6.80;;;4.20;;
71648;SDS011;59492;45.638;11.714;2023-03-01T08:07:11;5.90;;;4.10;;
71648;SDS011;59492;45.638;11.714;2023-03-01T08:09:37;6.70;;;4.40;;
71648;SDS011;59492;45.638;11.714;2023-03-01T08:12:04;6.30;;;4.80;;
71648;SDS011;59492;45.638;11.714;2023-03-01T08:14:34;7.30;;;4.10;;
71648;SDS011;59492;45.638;11.714;2023-03-01T08:16:59;5.70;;;4.20;;
71648;SDS011;59492;45.638;11.714;2023-03-01T08:19:27;6.40;;;4.00;;
71648;SDS011;59492;45.638;11.714;2023-03-01T08:21:53;6.80;;;3.90;;
71648;SDS011;59492;45.638;11.714;2023-03-01T08:24:19;8.60;;;4.80;;
71648;SDS011;59492;45.638;11.714;2023-03-01T08:26:44;5.50;;;4.40;;
71648;SDS011;59492;45.638;11.714;2023-03-01T08:29:10;6.20;;;4.50;;
71648;SDS011;59492;45.638;11.714;2023-03-01T08:31:36;5.90;;;4.30;;
71648;SDS011;59492;45.638;11.714;2023-03-01T08:34:09;7.60;;;4.50;;
71648;SDS011;59492;45.638;11.714;2023-03-01T08:36:38;5.30;;;4.50;;
71648;SDS011;59492;45.638;11.714;2023-03-01T08:39:06;7.20;;;4.90;;
71648;SDS011;59492;45.638;11.714;2023-03-01T08:41:33;6.90;;;4.60;;
71648;SDS011;59492;45.638;11.714;2023-03-01T08:43:59;5.40;;;4.40;;
71648;SDS011;59492;45.638;11.714;2023-03-01T08:46:26;7.10;;;4.60;;
71648;SDS011;59492;45.638;11.714;2023-03-01T08:48:52;6.80;;;4.40;;
71648;SDS011;59492;45.638;11.714;2023-03-01T08:51:19;5.50;;;4.40;;
71648;SDS011;59492;45.638;11.714;2023-03-01T08:53:45;7.30;;;4.60;;
71648;SDS011;59492;45.638;11.714;2023-03-01T08:56:12;7.10;;;4.50;;
71648;SDS011;59492;45.638;11.714;2023-03-01T08:58:38;5.40;;;4.30;;
71648;SDS011;59492;45.638;11.714;2023-03-01T09:01:08;8.60;;;4.50;;
71648;SDS011;59492;45.638;11.714;2023-03-01T09:03:35;4.60;;;4.20;;
71648;SDS011;59492;45.638;11.714;2023-03-01T09:06:02;5.10;;;4.30;;
71648;SDS011;59492;45.638;11.714;2023-03-01T09:08:29;5.80;;;4.40;;
71648;SDS011;59492;45.638;11.714;2023-03-01T09:10:55;5.80;;;4.20;;
71648;SDS011;59492;45.638;11.714;2023-03-01T09:13:21;4.90;;;4.40;;
71648;SDS011;59492;45.638;11.714;2023-03-01T09:15:50;6.20;;;4.40;;
71648;SDS011;59492;45.638;11.714;2023-03-01T09:18:16;5.10;;;4.20;;
71648;SDS011;59492;45.638;11.714;2023-03-01T09:20:41;4.70;;;4.10;;
71648;SDS011;59492;45.638;11.714;2023-03-01T09:23:07;6.70;;;4.40;;
71648;SDS011;59492;45.638;11.714;2023-03-01T09:25:33;5.80;;;4.30;;
71648;SDS011;59492;45.638;11.714;2023-03-01T09:27:59;5.10;;;3.70;;
71648;SDS011;59492;45.638;11.714;2023-03-01T09:30:25;4.40;;;3.90;;
71648;SDS011;59492;45.638;11.714;2023-03-01T09:32:51;5.50;;;4.30;;
71648;SDS011;59492;45.638;11.714;2023-03-01T09:35:17;5.00;;;4.10;;
71648;SDS011;59492;45.638;11.714;2023-03-01T09:37:45;4.80;;;4.10;;
71648;SDS011;59492;45.638;11.714;2023-03-01T09:40:20;4.80;;;4.30;;
71648;SDS011;59492;45.638;11.714;2023-03-01T09:47:54;5.10;;;4.30;;
71648;SDS011;59492;45.638;11.714;2023-03-01T09:50:21;5.40;;;4.50;;
71648;SDS011;59492;45.638;11.714;2023-03-01T09:55:20;11.90;;;4.80;;
71648;SDS011;59492;45.638;11.714;2023-03-01T09:57:55;13.50;;;4.50;;
71648;SDS011;59492;45.638;11.714;2023-03-01T10:00:42;10.00;;;3.80;;
71648;SDS011;59492;45.638;11.714;2023-03-01T10:03:17;7.40;;;4.60;;
71648;SDS011;59492;45.638;11.714;2023-03-01T10:08:56;8.80;;;4.70;;
71648;SDS011;59492;45.638;11.714;2023-03-01T10:11:35;14.60;;;4.30;;
71648;SDS011;59492;45.638;11.714;2023-03-01T10:14:15;9.10;;;4.60;;
71648;SDS011;59492;45.638;11.714;2023-03-01T10:19:46;11.70;;;3.90;;
71648;SDS011;59492;45.638;11.714;2023-03-01T10:22:30;11.40;;;4.20;;
71648;SDS011;59492;45.638;11.714;2023-03-01T10:24:57;9.40;;;4.50;;
71648;SDS011;59492;45.638;11.714;2023-03-01T10:30:22;13.50;;;5.20;;
71648;SDS011;59492;45.638;11.714;2023-03-01T10:32:57;11.20;;;4.30;;
71648;SDS011;59492;45.638;11.714;2023-03-01T10:35:24;8.10;;;4.00;;
71648;SDS011;59492;45.638;11.714;2023-03-01T10:37:56;8.90;;;4.10;;
71648;SDS011;59492;45.638;11.714;2023-03-01T10:40:31;14.40;;;5.00;;
71648;SDS011;59492;45.638;11.714;2023-03-01T10:42:59;7.50;;;4.40;;
71648;SDS011;59492;45.638;11.714;2023-03-01T10:45:32;12.70;;;4.90;;
71648;SDS011;59492;45.638;11.714;2023-03-01T10:48:19;11.80;;;5.00;;
71648;SDS011;59492;45.638;11.714;2023-03-01T10:53:33;6.50;;;3.70;;
71648;SDS011;59492;45.638;11.714;2023-03-01T10:56:04;9.50;;;4.40;;
71648;SDS011;59492;45.638;11.714;2023-03-01T10:58:33;10.10;;;4.20;;
71648;SDS011;59492;45.638;11.714;2023-03-01T11:03:31;13.40;;;4.70;;
71648;SDS011;59492;45.638;11.714;2023-03-01T11:06:01;12.20;;;4.50;;
71648;SDS011;59492;45.638;11.714;2023-03-01T11:08:30;9.00;;;4.50;;
71648;SDS011;59492;45.638;11.714;2023-03-01T11:11:05;6.40;;;3.90;;
71648;SDS011;59492;45.638;11.714;2023-03-01T11:13:52;13.10;;;4.90;;
71648;SDS011;59492;45.638;11.714;2023-03-01T11:16:26;9.60;;;4.30;;
71648;SDS011;59492;45.638;11.714;2023-03-01T11:18:58;6.90;;;3.90;;
71648;SDS011;59492;45.638;11.714;2023-03-01T11:21:26;10.80;;;4.50;;
71648;SDS011;59492;45.638;11.714;2023-03-01T11:23:56;10.10;;;4.30;;
71648;SDS011;59492;45.638;11.714;2023-03-01T11:26:25;7.60;;;4.10;;
71648;SDS011;59492;45.638;11.714;2023-03-01T11:28:54;6.30;;;4.10;;
71648;SDS011;59492;45.638;11.714;2023-03-01T11:31:24;8.20;;;4.30;;
71648;SDS011;59492;45.638;11.714;2023-03-01T11:33:59;8.50;;;4.10;;
71648;SDS011;59492;45.638;11.714;2023-03-01T11:36:43;7.40;;;4.50;;
71648;SDS011;59492;45.638;11.714;2023-03-01T11:39:41;8.70;;;5.00;;
71648;SDS011;59492;45.638;11.714;2023-03-01T11:42:18;10.60;;;4.00;;
71648;SDS011;59492;45.638;11.714;2023-03-01T11:44:49;11.60;;;4.40;;
71648;SDS011;59492;45.638;11.714;2023-03-01T11:47:32;7.70;;;4.40;;
71648;SDS011;59492;45.638;11.714;2023-03-01T11:58:39;9.90;;;4.90;;
71648;SDS011;59492;45.638;11.714;2023-03-01T12:06:28;10.10;;;5.90;;
71648;SDS011;59492;45.638;11.714;2023-03-01T12:09:36;12.00;;;6.20;;
71648;SDS011;59492;45.638;11.714;2023-03-01T12:12:36;9.90;;;6.40;;
71648;SDS011;59492;45.638;11.714;2023-03-01T12:24:03;12.10;;;6.80;;
71648;SDS011;59492;45.638;11.714;2023-03-01T12:37:55;12.40;;;7.00;;
71648;SDS011;59492;45.638;11.714;2023-03-01T12:40:46;10.10;;;8.10;;
71648;SDS011;59492;45.638;11.714;2023-03-01T12:46:36;14.70;;;9.70;;
71648;SDS011;59492;45.638;11.714;2023-03-01T12:49:26;16.20;;;10.90;;
71648;SDS011;59492;45.638;11.714;2023-03-01T12:52:21;15.20;;;10.50;;
71648;SDS011;59492;45.638;11.714;2023-03-01T12:54:42;13.80;;;11.50;;
71648;SDS011;59492;45.638;11.714;2023-03-01T12:57:28;15.00;;;10.90;;
71648;SDS011;59492;45.638;11.714;2023-03-01T13:11:15;16.10;;;11.40;;
71648;SDS011;59492;45.638;11.714;2023-03-01T13:13:46;18.50;;;10.60;;
71648;SDS011;59492;45.638;11.714;2023-03-01T13:16:39;16.20;;;11.30;;
71648;SDS011;59492;45.638;11.714;2023-03-01T13:19:23;12.40;;;9.80;;
71648;SDS011;59492;45.638;11.714;2023-03-01T13:21:51;14.60;;;10.40;;
71648;SDS011;59492;45.638;11.714;2023-03-01T13:24:40;12.80;;;10.20;;
71648;SDS011;59492;45.638;11.714;2023-03-01T13:34:50;14.00;;;10.00;;
71648;SDS011;59492;45.638;11.714;2023-03-01T13:37:20;11.70;;;9.40;;
71648;SDS011;59492;45.638;11.714;2023-03-01T13:39:48;14.00;;;8.90;;
71648;SDS011;59492;45.638;11.714;2023-03-01T13:42:31;11.70;;;8.80;;
71648;SDS011;59492;45.638;11.714;2023-03-01T13:45:12;11.20;;;8.60;;
71648;SDS011;59492;45.638;11.714;2023-03-01T13:47:44;11.50;;;8.80;;
71648;SDS011;59492;45.638;11.714;2023-03-01T13:50:22;13.00;;;8.80;;
71648;SDS011;59492;45.638;11.714;2023-03-01T13:52:55;10.50;;;8.80;;
71648;SDS011;59492;45.638;11.714;2023-03-01T13:55:36;11.70;;;8.70;;
71648;SDS011;59492;45.638;11.714;2023-03-01T13:58:26;12.00;;;8.40;;
71648;SDS011;59492;45.638;11.714;2023-03-01T14:03:59;10.50;;;8.10;;
71648;SDS011;59492;45.638;11.714;2023-03-01T14:06:29;11.30;;;8.30;;
71648;SDS011;59492;45.638;11.714;2023-03-01T14:09:25;10.50;;;8.60;;
71648;SDS011;59492;45.638;11.714;2023-03-01T14:14:56;8.40;;;7.50;;
71648;SDS011;59492;45.638;11.714;2023-03-01T14:20:23;12.30;;;8.10;;
71648;SDS011;59492;45.638;11.714;2023-03-01T14:22:50;11.00;;;8.00;;
71648;SDS011;59492;45.638;11.714;2023-03-01T14:25:20;10.70;;;7.10;;
71648;SDS011;59492;45.638;11.714;2023-03-01T14:27:50;8.60;;;7.70;;
71648;SDS011;59492;45.638;11.714;2023-03-01T14:30:25;9.00;;;7.10;;
71648;SDS011;59492;45.638;11.714;2023-03-01T14:32:57;10.90;;;7.40;;
71648;SDS011;59492;45.638;11.714;2023-03-01T14:35:28;12.00;;;7.70;;
71648;SDS011;59492;45.638;11.714;2023-03-01T14:37:56;8.50;;;7.30;;
71648;SDS011;59492;45.638;11.714;2023-03-01T14:40:26;8.40;;;7.10;;
71648;SDS011;59492;45.638;11.714;2023-03-01T14:45:33;11.90;;;7.60;;
71648;SDS011;59492;45.638;11.714;2023-03-01T14:48:00;10.00;;;7.20;;
71648;SDS011;59492;45.638;11.714;2023-03-01T14:50:30;12.30;;;7.30;;
71648;SDS011;59492;45.638;11.714;2023-03-01T14:53:11;9.30;;;7.10;;
71648;SDS011;59492;45.638;11.714;2023-03-01T14:55:53;8.70;;;6.90;;
71648;SDS011;59492;45.638;11.714;2023-03-01T15:00:49;9.10;;;6.90;;
71648;SDS011;59492;45.638;11.714;2023-03-01T15:06:06;8.20;;;6.20;;
71648;SDS011;59492;45.638;11.714;2023-03-01T15:08:36;8.60;;;6.80;;
71648;SDS011;59492;45.638;11.714;2023-03-01T15:13:58;8.70;;;6.60;;
71648;SDS011;59492;45.638;11.714;2023-03-01T15:16:26;10.20;;;6.50;;
71648;SDS011;59492;45.638;11.714;2023-03-01T15:18:54;8.80;;;6.80;;
71648;SDS011;59492;45.638;11.714;2023-03-01T15:21:24;8.40;;;6.90;;
71648;SDS011;59492;45.638;11.714;2023-03-01T15:23:57;8.90;;;6.90;;
71648;SDS011;59492;45.638;11.714;2023-03-01T15:26:29;8.30;;;6.20;;
71648;SDS011;59492;45.638;11.714;2023-03-01T15:28:58;11.30;;;7.00;;
71648;SDS011;59492;45.638;11.714;2023-03-01T15:31:26;13.70;;;6.30;;
71648;SDS011;59492;45.638;11.714;2023-03-01T15:34:21;7.00;;;6.10;;
71648;SDS011;59492;45.638;11.714;2023-03-01T15:36:50;7.70;;;6.10;;
71648;SDS011;59492;45.638;11.714;2023-03-01T15:39:30;11.90;;;6.10;;
71648;SDS011;59492;45.638;11.714;2023-03-01T15:42:05;7.20;;;5.70;;
71648;SDS011;59492;45.638;11.714;2023-03-01T15:44:34;7.20;;;6.40;;
71648;SDS011;59492;45.638;11.714;2023-03-01T15:47:08;7.50;;;6.00;;
71648;SDS011;59492;45.638;11.714;2023-03-01T15:49:50;8.30;;;6.60;;
71648;SDS011;59492;45.638;11.714;2023-03-01T15:52:23;9.60;;;6.90;;
71648;SDS011;59492;45.638;11.714;2023-03-01T15:54:58;10.60;;;6.40;;
71648;SDS011;59492;45.638;11.714;2023-03-01T15:57:25;7.70;;;6.10;;
71648;SDS011;59492;45.638;11.714;2023-03-01T15:59:51;8.50;;;6.40;;
71648;SDS011;59492;45.638;11.714;2023-03-01T16:02:21;9.20;;;6.10;;
71648;SDS011;59492;45.638;11.714;2023-03-01T16:04:48;7.80;;;6.40;;
71648;SDS011;59492;45.638;11.714;2023-03-01T16:07:14;8.70;;;6.50;;
71648;SDS011;59492;45.638;11.714;2023-03-01T16:09:39;8.70;;;6.20;;
71648;SDS011;59492;45.638;11.714;2023-03-01T16:12:08;8.50;;;6.50;;
71648;SDS011;59492;45.638;11.714;2023-03-01T16:14:39;7.70;;;5.90;;
71648;SDS011;59492;45.638;11.714;2023-03-01T16:17:05;7.70;;;6.30;;
71648;SDS011;59492;45.638;11.714;2023-03-01T16:19:30;8.40;;;6.20;;
71648;SDS011;59492;45.638;11.714;2023-03-01T16:21:56;10.00;;;6.00;;
71648;SDS011;59492;45.638;11.714;2023-03-01T16:24:22;7.90;;;6.00;;
71648;SDS011;59492;45.638;11.714;2023-03-01T16:26:47;8.10;;;6.70;;
71648;SDS011;59492;45.638;11.714;2023-03-01T16:29:13;14.10;;;6.00;;
71648;SDS011;59492;45.638;11.714;2023-03-01T16:31:40;8.20;;;6.00;;
71648;SDS011;59492;45.638;11.714;2023-03-01T16:34:06;7.80;;;5.50;;
71648;SDS011;59492;45.638;11.714;2023-03-01T16:36:35;7.20;;;5.60;;